createdAt,value
2018-08-12T00:00:27.460Z,14.10
2018-08-12T00:02:58.149Z,14.10
2018-08-12T00:05:27.672Z,14.00
2018-08-12T00:07:58.689Z,14.00
2018-08-12T00:10:28.392Z,14.00
2018-08-12T00:12:57.969Z,13.90
2018-08-12T00:15:27.542Z,13.90
2018-08-12T00:17:57.066Z,13.90
2018-08-12T00:20:26.665Z,13.90
2018-08-12T00:22:56.157Z,13.90
2018-08-12T00:25:25.752Z,13.90
2018-08-12T00:27:55.275Z,13.90
2018-08-12T00:30:24.780Z,13.80
2018-08-12T00:32:55.153Z,13.80
2018-08-12T00:35:24.674Z,13.80
2018-08-12T00:37:54.172Z,13.80
2018-08-12T00:40:23.850Z,13.70
2018-08-12T00:42:53.902Z,13.70
2018-08-12T00:45:23.562Z,13.70
2018-08-12T00:47:53.104Z,13.70
2018-08-12T00:50:22.633Z,13.70
2018-08-12T00:52:52.220Z,13.70
2018-08-12T00:55:21.740Z,13.70
2018-08-12T00:57:52.305Z,13.70
2018-08-12T01:00:22.917Z,13.70
2018-08-12T01:02:52.478Z,13.70
2018-08-12T01:05:22.641Z,13.70
2018-08-12T01:07:52.929Z,13.70
2018-08-12T01:10:22.664Z,13.70
2018-08-12T01:12:52.437Z,13.70
2018-08-12T01:15:22.931Z,13.70
2018-08-12T01:17:52.402Z,13.70
2018-08-12T01:20:24.159Z,13.70
2018-08-12T01:22:54.868Z,13.70
2018-08-12T01:25:25.134Z,13.70
2018-08-12T01:27:54.732Z,13.70
2018-08-12T01:30:24.548Z,13.80
2018-08-12T01:32:54.992Z,13.80
2018-08-12T01:35:24.643Z,13.80
2018-08-12T01:37:55.171Z,13.80
2018-08-12T01:40:25.499Z,13.80
2018-08-12T01:42:55.285Z,13.80
2018-08-12T01:45:25.684Z,13.80
2018-08-12T01:47:56.252Z,13.80
2018-08-12T01:50:27.016Z,13.80
2018-08-12T01:52:56.577Z,13.80
2018-08-12T01:55:26.305Z,13.80
2018-08-12T01:57:57.001Z,13.70
2018-08-12T02:00:26.626Z,13.70
2018-08-12T02:02:56.637Z,13.70
2018-08-12T02:05:26.208Z,13.70
2018-08-12T02:07:55.897Z,13.70
2018-08-12T02:10:26.907Z,13.60
2018-08-12T02:12:56.511Z,13.60
2018-08-12T02:15:25.944Z,13.70
2018-08-12T02:17:57.013Z,13.70
2018-08-12T02:20:27.040Z,13.70
2018-08-12T02:22:56.756Z,13.70
2018-08-12T02:25:26.468Z,13.70
2018-08-12T02:27:56.853Z,13.70
2018-08-12T02:30:26.359Z,13.70
2018-08-12T02:32:55.947Z,13.70
2018-08-12T02:35:25.624Z,13.70
2018-08-12T02:37:55.386Z,13.70
2018-08-12T02:40:25.202Z,13.70
2018-08-12T02:42:54.786Z,13.70
2018-08-12T02:45:25.095Z,13.70
2018-08-12T02:47:55.045Z,13.70
2018-08-12T02:50:24.832Z,13.70
2018-08-12T02:52:54.527Z,13.70
2018-08-12T02:55:25.152Z,13.70
2018-08-12T02:57:54.879Z,13.70
2018-08-12T03:00:25.641Z,13.70
2018-08-12T03:02:56.121Z,13.70
2018-08-12T03:05:25.963Z,13.70
2018-08-12T03:07:55.596Z,13.70
2018-08-12T03:10:25.315Z,13.70
2018-08-12T03:12:55.624Z,13.70
2018-08-12T03:15:25.214Z,13.70
2018-08-12T03:17:54.889Z,13.70
2018-08-12T03:20:25.399Z,13.70
2018-08-12T03:22:55.085Z,13.70
2018-08-12T03:25:24.783Z,13.70
2018-08-12T03:27:54.413Z,13.70
2018-08-12T03:30:24.074Z,13.70
2018-08-12T03:32:53.646Z,13.70
2018-08-12T03:35:23.453Z,13.70
2018-08-12T03:37:53.178Z,13.60
2018-08-12T03:40:22.845Z,13.60
2018-08-12T03:42:52.981Z,13.60
2018-08-12T03:45:23.106Z,13.60
2018-08-12T03:47:52.773Z,13.70
2018-08-12T03:50:23.319Z,13.60
2018-08-12T03:52:52.908Z,13.70
2018-08-12T03:55:22.663Z,13.70
2018-08-12T03:57:52.300Z,13.70
2018-08-12T04:00:22.029Z,13.70
2018-08-12T04:02:52.348Z,13.70
2018-08-12T04:05:22.048Z,13.70
2018-08-12T04:07:51.632Z,13.70
2018-08-12T04:10:21.357Z,13.70
2018-08-12T04:12:51.091Z,13.70
2018-08-12T04:15:20.808Z,13.70
2018-08-12T04:17:50.428Z,13.70
2018-08-12T04:20:21.814Z,13.80
2018-08-12T04:22:51.482Z,13.80
2018-08-12T04:25:20.948Z,13.80
2018-08-12T04:27:50.657Z,13.80
2018-08-12T04:30:20.335Z,13.80
2018-08-12T04:32:50.760Z,13.80
2018-08-12T04:35:22.154Z,13.80
2018-08-12T04:37:52.357Z,13.80
2018-08-12T04:40:21.919Z,13.80
2018-08-12T04:42:51.756Z,13.80
2018-08-12T04:45:21.682Z,13.80
2018-08-12T04:47:52.119Z,13.80
2018-08-12T04:50:22.773Z,13.90
2018-08-12T04:52:52.870Z,13.90
2018-08-12T04:55:22.670Z,13.90
2018-08-12T04:57:54.288Z,14.00
2018-08-12T05:00:23.894Z,14.00
2018-08-12T05:02:54.096Z,14.00
2018-08-12T05:05:23.570Z,14.00
2018-08-12T05:07:54.346Z,14.00
2018-08-12T05:10:24.980Z,14.00
2018-08-12T05:12:55.282Z,14.00
2018-08-12T05:15:24.898Z,14.00
2018-08-12T05:17:55.440Z,14.00
2018-08-12T05:20:25.349Z,14.00
2018-08-12T05:22:55.034Z,14.00
2018-08-12T05:25:24.566Z,14.00
2018-08-12T05:27:54.203Z,14.10
2018-08-12T05:30:24.854Z,14.00
2018-08-12T05:32:54.325Z,14.10
2018-08-12T05:35:24.554Z,14.10
2018-08-12T05:37:54.353Z,14.10
2018-08-12T05:40:24.548Z,14.10
2018-08-12T05:42:55.258Z,14.20
2018-08-12T05:45:24.978Z,14.10
2018-08-12T05:47:54.697Z,14.10
2018-08-12T05:50:24.467Z,14.10
2018-08-12T05:52:54.138Z,14.10
2018-08-12T05:55:23.690Z,14.10
2018-08-12T05:57:53.198Z,14.10
2018-08-12T06:00:23.449Z,14.10
2018-08-12T06:02:53.478Z,14.10
2018-08-12T06:05:23.156Z,14.10
2018-08-12T06:07:52.801Z,14.10
2018-08-12T06:10:23.196Z,14.10
2018-08-12T06:12:53.036Z,14.10
2018-08-12T06:15:23.282Z,14.20
2018-08-12T06:17:53.003Z,14.20
2018-08-12T06:20:22.880Z,14.20
2018-08-12T06:22:52.545Z,14.20
2018-08-12T06:25:22.190Z,14.20
2018-08-12T06:27:51.848Z,14.10
2018-08-12T06:30:21.463Z,14.10
2018-08-12T06:32:51.663Z,14.00
2018-08-12T06:35:21.388Z,13.90
2018-08-12T06:37:50.917Z,13.80
2018-08-12T06:40:20.497Z,13.80
2018-08-12T06:42:50.228Z,13.70
2018-08-12T06:45:19.786Z,13.70
2018-08-12T06:47:49.551Z,13.70
2018-08-12T06:50:19.281Z,13.60
2018-08-12T06:52:50.084Z,13.60
2018-08-12T06:55:19.644Z,13.60
2018-08-12T06:57:49.286Z,13.60
2018-08-12T07:00:19.778Z,13.60
2018-08-12T07:02:49.401Z,13.60
2018-08-12T07:05:20.504Z,13.60
2018-08-12T07:07:51.548Z,13.60
2018-08-12T07:10:21.160Z,13.70
2018-08-12T07:12:50.692Z,13.70
2018-08-12T07:15:20.444Z,13.70
2018-08-12T07:17:50.112Z,13.80
2018-08-12T07:20:19.739Z,13.80
2018-08-12T07:22:49.250Z,13.80
2018-08-12T07:25:18.716Z,13.90
2018-08-12T07:27:48.225Z,14.00
2018-08-12T07:30:17.840Z,14.00
2018-08-12T07:32:47.457Z,14.00
2018-08-12T07:35:17.072Z,14.10
2018-08-12T07:37:46.577Z,14.10
2018-08-12T07:40:19.490Z,14.20
2018-08-12T07:42:50.108Z,14.30
2018-08-12T07:45:19.751Z,14.30
2018-08-12T07:50:29.923Z,14.30
2018-08-12T07:52:59.512Z,14.50
2018-08-12T07:55:29.207Z,14.50
2018-08-12T07:57:59.060Z,14.50
2018-08-12T08:00:28.565Z,14.60
2018-08-12T08:02:58.254Z,14.60
2018-08-12T08:05:27.774Z,14.60
2018-08-12T08:07:57.333Z,14.60
2018-08-12T08:10:26.798Z,14.70
2018-08-12T08:12:57.189Z,14.70
2018-08-12T08:15:26.850Z,14.70
2018-08-12T08:17:56.331Z,14.70
2018-08-12T08:20:25.890Z,14.80
2018-08-12T08:22:55.499Z,14.80
2018-08-12T08:25:25.116Z,14.80
2018-08-12T08:27:54.608Z,14.80
2018-08-12T08:30:24.216Z,14.80
2018-08-12T08:32:53.790Z,14.80
2018-08-12T08:35:23.420Z,14.90
2018-08-12T08:37:54.787Z,14.90
2018-08-12T08:40:24.408Z,14.90
2018-08-12T08:42:53.932Z,14.90
2018-08-12T08:45:23.501Z,14.90
2018-08-12T08:47:53.470Z,14.90
2018-08-12T08:50:23.498Z,14.90
2018-08-12T08:52:53.087Z,14.90
2018-08-12T08:55:22.739Z,14.90
2018-08-12T08:57:52.551Z,15.00
2018-08-12T09:00:22.452Z,15.00
2018-08-12T09:02:53.178Z,15.10
2018-08-12T09:05:22.912Z,15.10
2018-08-12T09:07:52.717Z,15.10
2018-08-12T09:10:22.310Z,15.00
2018-08-12T09:12:51.856Z,14.90
2018-08-12T09:15:21.860Z,14.90
2018-08-12T09:17:51.674Z,14.80
2018-08-12T09:20:22.912Z,14.70
2018-08-12T09:22:52.434Z,14.80
2018-08-12T09:25:23.514Z,14.80
2018-08-12T09:27:53.063Z,14.80
2018-08-12T09:30:22.969Z,14.80
2018-08-12T09:32:52.598Z,14.90
2018-08-12T09:35:22.937Z,15.00
2018-08-12T09:37:52.847Z,15.00
2018-08-12T09:40:22.367Z,15.10
2018-08-12T09:42:51.902Z,15.20
2018-08-12T09:45:22.423Z,15.30
2018-08-12T09:47:52.784Z,15.40
2018-08-12T09:50:22.871Z,15.50
2018-08-12T09:52:53.444Z,15.60
2018-08-12T09:55:23.004Z,15.70
2018-08-12T09:57:52.743Z,15.80
2018-08-12T10:00:29.381Z,15.90
2018-08-12T10:02:58.878Z,16.00
2018-08-12T10:05:28.359Z,16.10
2018-08-12T10:07:57.933Z,16.10
2018-08-12T10:10:27.540Z,16.10
2018-08-12T10:12:57.060Z,16.10
2018-08-12T10:15:26.689Z,16.10
2018-08-12T10:17:58.122Z,16.10
2018-08-12T10:20:27.858Z,16.10
2018-08-12T10:22:57.432Z,16.10
2018-08-12T10:25:26.966Z,16.10
2018-08-12T10:27:56.561Z,16.10
2018-08-12T10:30:26.059Z,16.10
2018-08-12T10:32:55.618Z,16.10
2018-08-12T10:35:25.242Z,16.10
2018-08-12T10:37:54.716Z,16.20
2018-08-12T10:40:24.284Z,16.30
2018-08-12T10:42:53.827Z,16.40
2018-08-12T10:45:23.367Z,16.40
2018-08-12T10:47:52.950Z,16.50
2018-08-12T10:50:22.501Z,16.50
2018-08-12T10:52:52.078Z,16.50
2018-08-12T10:55:22.983Z,16.60
2018-08-12T10:57:52.668Z,16.60
2018-08-12T11:00:25.220Z,16.70
2018-08-12T11:02:54.933Z,16.70
2018-08-12T11:05:24.602Z,16.80
2018-08-12T11:07:55.618Z,17.00
2018-08-12T11:10:25.613Z,17.00
2018-08-12T11:12:55.178Z,17.20
2018-08-12T11:15:24.749Z,17.30
2018-08-12T11:17:54.448Z,17.40
2018-08-12T11:20:24.139Z,17.50
2018-08-12T11:22:53.626Z,17.70
2018-08-12T11:25:23.320Z,17.70
2018-08-12T11:27:52.874Z,17.90
2018-08-12T11:30:22.457Z,18.00
2018-08-12T11:32:52.014Z,18.20
2018-08-12T11:35:21.540Z,18.40
2018-08-12T11:37:51.127Z,18.60
2018-08-12T11:40:20.720Z,18.80
2018-08-12T11:42:50.269Z,18.90
2018-08-12T11:45:20.172Z,19.00
2018-08-12T11:47:50.133Z,19.10
2018-08-12T11:50:19.647Z,19.30
2018-08-12T11:52:49.164Z,19.40
2018-08-12T11:55:19.664Z,19.60
2018-08-12T11:57:49.266Z,19.80
2018-08-12T12:00:20.518Z,19.90
2018-08-12T12:02:51.249Z,19.90
2018-08-12T12:05:20.758Z,19.80
2018-08-12T12:07:50.507Z,19.90
2018-08-12T12:10:21.569Z,19.90
2018-08-12T12:12:51.907Z,19.90
2018-08-12T12:15:21.484Z,19.80
2018-08-12T12:17:51.066Z,19.70
2018-08-12T12:20:21.046Z,19.60
2018-08-12T12:22:50.680Z,19.50
2018-08-12T12:25:21.199Z,19.40
2018-08-12T12:27:50.795Z,19.40
2018-08-12T12:30:21.548Z,18.90
2018-08-12T12:32:52.350Z,18.50
2018-08-12T12:35:21.933Z,18.20
2018-08-12T12:37:51.561Z,17.90
2018-08-12T12:40:21.157Z,17.50
2018-08-12T12:42:50.877Z,17.20
2018-08-12T12:45:20.421Z,16.80
2018-08-12T12:47:50.133Z,16.70
2018-08-12T12:50:21.712Z,16.60
2018-08-12T12:52:53.409Z,16.40
2018-08-12T12:55:24.132Z,16.40
2018-08-12T12:57:54.127Z,16.40
2018-08-12T13:00:26.701Z,16.40
2018-08-12T13:02:59.573Z,16.70
2018-08-12T13:05:29.690Z,16.90
2018-08-12T13:07:59.246Z,17.10
2018-08-12T13:10:28.815Z,17.50
2018-08-12T13:12:58.409Z,17.60
2018-08-12T13:15:28.031Z,17.80
2018-08-12T13:17:57.652Z,17.80
2018-08-12T13:20:27.510Z,17.90
2018-08-12T13:22:58.393Z,17.80
2018-08-12T13:25:28.706Z,17.70
2018-08-12T13:27:58.345Z,17.50
2018-08-12T13:30:27.920Z,17.40
2018-08-12T13:32:57.491Z,17.40
2018-08-12T13:35:27.436Z,17.30
2018-08-12T13:37:57.002Z,17.10
2018-08-12T13:40:26.519Z,17.00
2018-08-12T13:42:56.104Z,16.90
2018-08-12T13:45:25.638Z,16.90
2018-08-12T13:47:55.315Z,16.90
2018-08-12T13:50:25.264Z,16.90
2018-08-12T13:52:54.878Z,16.80
2018-08-12T13:55:24.550Z,16.70
2018-08-12T13:57:54.503Z,16.60
2018-08-12T14:00:25.322Z,16.50
2018-08-12T14:02:54.860Z,16.30
2018-08-12T14:05:24.346Z,16.50
2018-08-12T14:07:53.852Z,16.60
2018-08-12T14:10:23.419Z,16.70
2018-08-12T14:12:52.947Z,16.90
2018-08-12T14:15:22.536Z,17.00
2018-08-12T14:17:52.088Z,17.30
2018-08-12T14:20:22.287Z,17.60
2018-08-12T14:22:52.029Z,17.90
2018-08-12T14:25:21.530Z,18.10
2018-08-12T14:27:51.094Z,18.40
2018-08-12T14:30:21.878Z,18.60
2018-08-12T14:32:51.539Z,18.70
2018-08-12T14:35:21.095Z,18.80
2018-08-12T14:37:50.628Z,18.80
2018-08-12T14:40:20.158Z,19.00
2018-08-12T14:42:49.698Z,18.90
2018-08-12T14:45:19.231Z,18.90
2018-08-12T14:47:48.768Z,19.00
2018-08-12T14:50:20.824Z,19.00
2018-08-12T14:52:50.465Z,19.00
2018-08-12T14:55:20.902Z,19.00
2018-08-12T14:57:50.483Z,19.10
2018-08-12T15:00:21.056Z,19.10
2018-08-12T15:02:51.684Z,19.10
2018-08-12T15:05:21.484Z,19.20
2018-08-12T15:07:51.083Z,19.30
2018-08-12T15:10:20.652Z,19.30
2018-08-12T15:12:50.152Z,19.30
2018-08-12T15:15:19.675Z,19.30
2018-08-12T15:17:49.187Z,19.40
2018-08-12T15:20:18.761Z,19.40
2018-08-12T15:22:51.275Z,19.50
2018-08-12T15:25:21.532Z,19.40
2018-08-12T15:27:51.090Z,19.40
2018-08-12T15:30:20.680Z,19.50
2018-08-12T15:32:50.215Z,19.50
2018-08-12T15:35:19.719Z,19.50
2018-08-12T15:37:49.198Z,19.60
2018-08-12T15:40:18.707Z,19.70
2018-08-12T15:42:48.296Z,19.50
2018-08-12T15:45:18.443Z,19.60
2018-08-12T15:47:48.363Z,19.50
2018-08-12T15:50:17.898Z,19.40
2018-08-12T15:52:47.852Z,19.10
2018-08-12T15:55:17.339Z,18.80
2018-08-12T15:57:46.857Z,18.70
2018-08-12T16:00:19.386Z,18.50
2018-08-12T16:02:49.000Z,18.30
2018-08-12T16:05:18.584Z,18.20
2018-08-12T16:07:48.920Z,18.00
2018-08-12T16:10:21.721Z,17.80
2018-08-12T16:12:52.503Z,17.80
2018-08-12T16:15:22.807Z,17.70
2018-08-12T16:17:52.460Z,17.80
2018-08-12T16:20:22.054Z,18.00
2018-08-12T16:22:51.662Z,18.10
2018-08-12T16:25:22.048Z,18.20
2018-08-12T16:27:51.731Z,18.30
2018-08-12T16:30:21.472Z,18.20
2018-08-12T16:32:50.942Z,18.20
2018-08-12T16:35:20.692Z,18.30
2018-08-12T16:37:50.294Z,18.40
2018-08-12T16:40:20.856Z,18.50
2018-08-12T16:42:50.684Z,18.70
2018-08-12T16:45:20.631Z,18.80
2018-08-12T16:47:50.198Z,18.70
2018-08-12T16:50:19.703Z,18.80
2018-08-12T16:52:49.196Z,18.90
2018-08-12T16:55:19.205Z,19.00
2018-08-12T16:57:49.051Z,19.20
2018-08-12T17:00:20.459Z,19.30
2018-08-12T17:02:50.251Z,19.30
2018-08-12T17:05:22.068Z,19.30
2018-08-12T17:07:51.736Z,19.10
2018-08-12T17:10:21.604Z,19.00
2018-08-12T17:12:51.102Z,18.90
2018-08-12T17:15:21.853Z,19.00
2018-08-12T17:17:51.429Z,19.00
2018-08-12T17:20:21.789Z,19.10
2018-08-12T17:22:51.332Z,19.00
2018-08-12T17:25:21.027Z,19.00
2018-08-12T17:27:50.533Z,19.00
2018-08-12T17:30:20.176Z,19.00
2018-08-12T17:32:49.946Z,18.90
2018-08-12T17:35:19.537Z,18.70
2018-08-12T17:37:49.039Z,18.50
2018-08-12T17:40:18.555Z,18.30
2018-08-12T17:42:48.274Z,18.10
2018-08-12T17:45:17.915Z,17.90
2018-08-12T17:47:47.416Z,17.80
2018-08-12T17:50:17.650Z,17.60
2018-08-12T17:52:47.243Z,17.50
2018-08-12T17:55:16.830Z,17.50
2018-08-12T17:57:46.382Z,17.50
2018-08-12T18:00:17.149Z,17.40
2018-08-12T18:02:46.730Z,17.40
2018-08-12T18:05:16.203Z,17.30
2018-08-12T18:07:45.687Z,17.20
2018-08-12T18:10:15.204Z,17.10
2018-08-12T18:12:44.630Z,17.00
2018-08-12T18:15:14.122Z,16.90
2018-08-12T18:17:43.583Z,16.80
2018-08-12T18:20:13.075Z,16.70
2018-08-12T18:22:42.602Z,16.60
2018-08-12T18:25:12.379Z,16.50
2018-08-12T18:27:41.837Z,16.40
2018-08-12T18:30:13.226Z,16.30
2018-08-12T18:32:42.852Z,16.30
2018-08-12T18:35:13.002Z,16.20
2018-08-12T18:37:42.688Z,16.00
2018-08-12T18:40:12.916Z,16.00
2018-08-12T18:42:42.382Z,16.00
2018-08-12T18:45:11.859Z,15.90
2018-08-12T18:47:41.348Z,15.90
2018-08-12T18:50:11.566Z,15.80
2018-08-12T18:52:41.674Z,15.80
2018-08-12T18:55:12.650Z,15.70
2018-08-12T18:57:42.158Z,15.70
2018-08-12T19:00:13.531Z,15.60
2018-08-12T19:02:43.011Z,15.60
2018-08-12T19:05:13.252Z,15.50
2018-08-12T19:07:42.915Z,15.50
2018-08-12T19:10:12.627Z,15.50
2018-08-12T19:12:42.976Z,15.40
2018-08-12T19:15:13.137Z,15.40
2018-08-12T19:17:42.626Z,15.30
2018-08-12T19:20:12.306Z,15.30
2018-08-12T19:22:41.768Z,15.30
2018-08-12T19:25:11.218Z,15.20
2018-08-12T19:27:40.702Z,15.20
2018-08-12T19:30:13.474Z,15.20
2018-08-12T19:32:43.034Z,15.10
2018-08-12T19:35:12.964Z,15.10
2018-08-12T19:37:42.550Z,15.00
2018-08-12T19:40:12.018Z,14.90
2018-08-12T19:42:42.150Z,14.90
2018-08-12T19:45:12.448Z,14.80
2018-08-12T19:47:42.678Z,14.80
2018-08-12T19:50:12.859Z,14.70
2018-08-12T19:52:42.658Z,14.60
2018-08-12T19:55:12.472Z,14.60
2018-08-12T19:57:41.924Z,14.50
2018-08-12T20:00:13.707Z,14.50
2018-08-12T20:02:43.804Z,14.40
2018-08-12T20:05:13.934Z,14.40
2018-08-12T20:07:44.416Z,14.30
2018-08-12T20:10:13.923Z,14.30
2018-08-12T20:12:43.481Z,14.30
2018-08-12T20:15:13.106Z,14.20
2018-08-12T20:17:42.526Z,14.20
2018-08-12T20:20:13.041Z,14.10
2018-08-12T20:22:43.234Z,14.10
2018-08-12T20:25:13.344Z,14.10
2018-08-12T20:27:43.147Z,14.00
2018-08-12T20:30:13.338Z,14.00
2018-08-12T20:32:43.490Z,13.90
2018-08-12T20:35:12.929Z,13.90
2018-08-12T20:37:43.369Z,13.90
2018-08-12T20:40:12.869Z,13.80
2018-08-12T20:42:42.402Z,13.80
2018-08-12T20:45:11.862Z,13.70
2018-08-12T20:47:41.310Z,13.70
2018-08-12T20:50:10.743Z,13.60
2018-08-12T20:52:40.211Z,13.60
2018-08-12T20:55:10.059Z,13.60
2018-08-12T20:57:39.469Z,13.50
2018-08-12T21:00:10.169Z,13.40
2018-08-12T21:02:39.816Z,13.40
2018-08-12T21:05:09.214Z,13.30
2018-08-12T21:07:40.674Z,13.30
2018-08-12T21:10:10.833Z,13.30
2018-08-12T21:12:40.505Z,13.20
2018-08-12T21:15:10.051Z,13.20
2018-08-12T21:17:39.550Z,13.20
2018-08-12T21:20:09.106Z,13.20
2018-08-12T21:22:38.958Z,13.10
2018-08-12T21:25:08.995Z,13.10
2018-08-12T21:27:38.778Z,13.00
2018-08-12T21:30:08.410Z,13.00
2018-08-12T21:32:37.931Z,13.00
2018-08-12T21:35:07.474Z,12.90
2018-08-12T21:37:36.902Z,12.90
2018-08-12T21:40:06.438Z,12.80
2018-08-12T21:42:35.881Z,12.80
2018-08-12T21:45:05.703Z,12.70
2018-08-12T21:47:35.365Z,12.70
2018-08-12T21:50:05.478Z,12.60
2018-08-12T21:52:34.976Z,12.60
2018-08-12T21:55:04.896Z,12.60
2018-08-12T21:57:34.404Z,12.50
2018-08-12T22:00:05.991Z,12.50
2018-08-12T22:02:35.458Z,12.50
2018-08-12T22:05:05.381Z,12.50
2018-08-12T22:07:34.829Z,12.50
2018-08-12T22:10:04.735Z,12.40
2018-08-12T22:12:34.206Z,12.40
2018-08-12T22:15:03.788Z,12.40
2018-08-12T22:17:33.911Z,12.30
2018-08-12T22:20:03.471Z,12.30
2018-08-12T22:22:33.451Z,12.20
2018-08-12T22:25:02.859Z,12.20
2018-08-12T22:27:32.262Z,12.10
2018-08-12T22:30:01.718Z,12.10
2018-08-12T22:32:31.146Z,12.10
2018-08-12T22:35:00.570Z,12.00
2018-08-12T22:37:30.734Z,12.00
2018-08-12T22:40:00.738Z,12.00
2018-08-12T22:42:30.238Z,12.00
2018-08-12T22:44:59.694Z,12.00
2018-08-12T22:47:29.135Z,11.90
2018-08-12T22:49:58.575Z,11.90
2018-08-12T22:52:28.012Z,11.90
2018-08-12T22:54:57.446Z,11.80
2018-08-12T22:57:26.893Z,11.80
2018-08-12T22:59:56.323Z,11.80
2018-08-12T23:02:25.801Z,11.80
2018-08-12T23:04:55.218Z,11.80
2018-08-12T23:07:24.786Z,11.80
2018-08-12T23:09:54.243Z,11.80
2018-08-12T23:12:23.678Z,11.70
2018-08-12T23:14:54.170Z,11.70
2018-08-12T23:17:23.641Z,11.70
2018-08-12T23:19:53.124Z,11.70
2018-08-12T23:22:22.536Z,11.60
2018-08-12T23:24:52.030Z,11.60
2018-08-12T23:27:21.460Z,11.60
2018-08-12T23:29:51.593Z,11.50
2018-08-12T23:32:21.109Z,11.60
2018-08-12T23:34:50.579Z,11.50
2018-08-12T23:37:20.074Z,11.50
2018-08-12T23:39:49.490Z,11.50
2018-08-12T23:42:18.910Z,11.50
2018-08-12T23:44:48.384Z,11.50
2018-08-12T23:47:17.851Z,11.40
2018-08-12T23:49:47.467Z,11.40
2018-08-12T23:52:16.958Z,11.40
2018-08-12T23:54:46.414Z,11.30
2018-08-12T23:57:15.854Z,11.30
2018-08-12T23:59:45.350Z,11.20
